• Join FlightAware (Why Join?)
  • Login
  • US Flag 
10:13PM EDT


 

Airport Tracker/Info


-or-


 

Live Flight TrackerFlight Track Log ✈ TCF3516 ✈ 18-Nov-2013 ✈ KORD - KCLT

Flight Track Log - Related Links

Times and Time Zones

All times are in EST time to prevent confusion due to time zone crossing. See the TCF3516 flight status page for this flight to view local times or setup timezone preferences in your user account.

Time Position Orientation Groundspeed Altitude Reporting Facility
EST Latitude Longitude Course Direction KTS MPH feet Rate Location/Type
04:31PM 41.9167 -87.9000 139° Southeast 190 219 2,600  Level Chicago TRACON
04:33PM 41.8114 -87.8428 158° South 260 299 6,400 2,700 Climbing Chicago Center
04:34PM 41.7294 -87.7844 152° Southeast 304 350 10,000 2,820 Climbing Chicago Center
04:35PM 41.6511 -87.7311 153° Southeast 332 382 12,300 2,460 Climbing Chicago Center
04:36PM 41.5680 -87.4303 139° Southeast  Level Estimated
04:36PM 41.5400 -87.6528 152° Southeast 373 429 15,100  Level Chicago Center
04:37PM 41.4425 -87.5858 153° Southeast 389 448 17,200 2,100 Climbing Chicago Center
04:38PM 41.3311 -87.5567 169° South 407 468 19,500 2,220 Climbing Chicago Center
04:39PM 41.2178 -87.5369 173° South 406 467 21,900 2,100 Climbing Chicago Center
04:40PM 41.1036 -87.5083 169° South 416 479 23,900 1,980 Climbing Chicago Center
04:41PM 40.9875 -87.4764 168° South 422 486 26,000 1,680 Climbing Chicago Center
04:42PM 40.8694 -87.4436 168° South 432 497 27,400 1,500 Climbing Chicago Center
04:43PM 40.7233 -87.4072 169° South 443 510 29,100 1,320 Climbing Chicago Center
04:44PM 40.6017 -87.3750 169° South 445 512 30,200 1,020 Climbing Chicago Center
04:45PM 40.4769 -87.3411 168° South 455 524 31,300 1,200 Climbing Chicago Center
04:46PM 40.3494 -87.2400 149° Southeast 488 562 32,700 1,200 Climbing Chicago Center
04:47PM 40.2389 -87.1367 144° Southeast 491 565 33,800 1,080 Climbing Chicago Center
04:48PM 40.1294 -87.0339 144° Southeast 486 559 35,000 540 Climbing Chicago Center
04:49PM 40.0197 -86.9339 145° Southeast 484 557 35,000  Level Chicago Center
04:50PM 39.9092 -86.8364 146° Southeast 480 552 35,000  Level Indianapolis Center
04:51PM 39.7975 -86.7464 148° Southeast 477 549 35,000  Level Indianapolis Center
04:52PM 39.6961 -86.6383 141° Southeast 491 565 35,000  Level Indianapolis Center
04:53PM 39.6261 -86.4789 120° Southeast 515 593 35,000  Level Indianapolis Center
04:54PM 39.5431 -86.2883 119° Southeast 520 598 35,000  Level Indianapolis Center
04:55PM 39.4733 -86.1300 120° Southeast 518 596 35,000  Level Indianapolis Center
04:56PM 39.4017 -85.9686 120° Southeast 520 598 35,000  Level Indianapolis Center
04:57PM 39.3306 -85.8075 120° Southeast 521 600 35,000  Level Indianapolis Center
04:58PM 39.2586 -85.6450 120° Southeast 523 602 35,000  Level Indianapolis Center
04:59PM 39.1722 -85.4536 120° Southeast 518 596 35,000  Level Indianapolis Center
05:00PM 39.1006 -85.2950 120° Southeast 515 593 35,000  Level Indianapolis Center
05:01PM 39.0294 -85.1358 120° Southeast 516 594 35,000  Level Indianapolis Center
05:02PM 38.9581 -84.9794 120° Southeast 512 589 35,000  Level Indianapolis Center
05:03PM 38.8867 -84.8217 120° Southeast 511 588 35,000  Level Indianapolis Center
05:04PM 38.7989 -84.6342 121° Southeast 514 592 35,000  Level Indianapolis Center
05:05PM 38.7353 -84.4944 120° Southeast 515 593 35,000  Level Indianapolis Center
05:06PM 38.6436 -84.3117 123° Southeast 513 590 35,000  Level Indianapolis Center
05:08PM 38.5450 -84.2044 140° Southeast 493 567 35,000  Level Indianapolis Center
05:09PM 38.4383 -84.0942 141° Southeast 491 565 35,000  Level Indianapolis Center
05:10PM 38.3314 -83.9864 142° Southeast 489 563 35,000  Level Indianapolis Center
05:11PM 38.2056 -83.8597 142° Southeast 493 567 35,000  Level Indianapolis Center
05:12PM 38.0994 -83.7511 141° Southeast 489 563 35,000  Level Indianapolis Center
05:13PM 37.9919 -83.6444 142° Southeast 488 562 35,000  Level Indianapolis Center
05:14PM 37.8858 -83.5383 142° Southeast 485 558 35,000 -600 Level Indianapolis Center
05:15PM 37.7794 -83.4331 142° Southeast 485 558 33,800 -1,020 Descending Indianapolis Center
05:16PM 37.6731 -83.3272 142° Southeast 486 559 33,000 -420 Descending Indianapolis Center
05:17PM 37.5472 -83.2042 142° Southeast 488 562 33,000 -540 Level Indianapolis Center
05:18PM 37.4392 -83.0978 142° Southeast 490 564 32,000 -1,080 Descending Indianapolis Center
05:19PM 37.3314 -82.9922 142° Southeast 488 562 30,900 -1,080 Descending Indianapolis Center
05:20PM 37.2250 -82.8883 142° Southeast 484 557 29,800 -960 Descending Indianapolis Center
05:21PM 37.1197 -82.7853 142° Southeast 477 549 29,000 -420 Descending Indianapolis Center
05:22PM 37.0139 -82.6828 142° Southeast 473 544 29,000  Level Indianapolis Center
05:23PM 36.9078 -82.5814 143° Southeast 472 543 29,000  Level Indianapolis Center
05:24PM 36.8014 -82.4828 143° Southeast 472 543 29,000 -300 Level Indianapolis Center
05:25PM 36.6900 -82.3997 149° Southeast 464 534 28,500 -780 Descending Indianapolis Center
05:26PM 36.5628 -82.3028 149° Southeast 459 528 27,500 -960 Descending Indianapolis Center
05:27PM 36.4347 -82.2067 149° Southeast 452 520 26,400 -960 Descending Atlanta Center
05:28PM 36.3292 -82.1292 149° Southeast 447 514 25,500 -900 Descending Atlanta Center
05:29PM 36.2300 -82.0517 148° Southeast 440 506 24,600 -900 Descending Atlanta Center
05:30PM 36.1264 -81.9769 150° Southeast 434 499 23,700 -900 Descending Atlanta Center
05:31PM 36.0272 -81.9000 148° Southeast 434 499 22,800 -1,500 Descending Atlanta Center
05:32PM 35.9383 -81.8356 150° Southeast 427 491 20,800 -2,640 Descending Atlanta Center
05:33PM 35.8750 -81.7886 149° Southeast 407 468 18,800 -2,700 Descending Atlanta Center
05:33PM 35.8411 -81.7642 150° Southeast 416 479 18,100 -2,340 Descending Atlanta Center
05:33PM 35.8306 -81.7542 142° Southeast 411 473 17,600 -2,520 Descending Atlanta Center
05:34PM 35.7458 -81.6925 149° Southeast 404 465 15,600 -2,520 Descending Atlanta Center
05:35PM 35.6358 -81.6114 149° Southeast 366 421 12,300 -1,800 Descending Atlanta Center
05:36PM 35.5739 -81.5417 138° Southeast 367 422 12,000 -360 Descending Atlanta Center
05:36PM 35.5717 -81.5392 138° Southeast 325 374 12,000  Level Atlanta Center
05:37PM 35.5178 -81.4542 128° Southeast 341 392 12,000 -120 Level Atlanta Center
05:37PM 35.5156 -81.4489 117° Southeast 324 373 11,900 -1,440 Descending Atlanta Center
05:38PM 35.4639 -81.3742 130° Southeast 328 377 10,600 -1,740 Descending Atlanta Center
05:38PM 35.4508 -81.3492 123° Southeast 327 376 10,000 -1,620 Descending Atlanta Center
05:39PM 35.4056 -81.2844 131° Southeast 321 369 9,000 -540 Descending Atlanta Center
05:40PM 35.3408 -81.1872 129° Southeast 322 371 9,000  Level Atlanta Center
05:41PM 35.2914 -81.1203 132° Southeast 323 372 9,000  Level Atlanta Center
05:41PM 35.2892 -81.1128 110° East 320 368 9,000 -120 Level Atlanta Center
05:42PM 35.2294 -81.0664 148° Southeast 275 316 8,900 -300 Descending Atlanta Center
05:42PM 35.2275 -81.0717 246° West 254 292 8,700 -1,800 Descending Atlanta Center
05:43PM 35.1564 -81.0667 177° South 246 283 7,000 -1,860 Descending Atlanta Center
05:44PM 35.0939 -81.0611 176° South 223 257 5,000 -1,980 Descending Atlanta Center
05:45PM 35.0653 -81.0064 123° Southeast 228 262 3,000 -1,320 Descending Atlanta Center
05:46PM 35.1103 -80.9717 32° Northeast 180 207 2,400 -720 Descending Atlanta Center
05:47PM 35.1411 -80.9503 30° Northeast 112 129 1,600 -600 Descending Atlanta Center
05:48PM 35.1747 -80.9542 355° North 112 129 1,200 -420 Descending Atlanta Center